createdAt,value
2022-09-22T00:01:33.459Z,102885.28
2022-09-22T00:04:03.784Z,102886.22
2022-09-22T00:06:33.599Z,102881.06
2022-09-22T00:09:04.437Z,102873.31
2022-09-22T00:11:35.634Z,102876.03
2022-09-22T00:14:05.518Z,102876.97
2022-09-22T00:16:36.591Z,102870.94
2022-09-22T00:19:06.739Z,102872.72
2022-09-22T00:21:34.675Z,102878.84
2022-09-22T00:24:07.089Z,102882.34
2022-09-22T00:26:36.059Z,102872.84
2022-09-22T00:29:04.115Z,102871.25
2022-09-22T00:31:32.290Z,102868.75
2022-09-22T00:34:00.186Z,102867.91
2022-09-22T00:36:29.124Z,102862.72
2022-09-22T00:38:58.463Z,102857.50
2022-09-22T00:41:29.798Z,102853.19
2022-09-22T00:44:34.054Z,102851.47
2022-09-22T00:47:07.710Z,102849.84
2022-09-22T00:49:43.210Z,102849.03
2022-09-22T00:52:12.420Z,102848.25
2022-09-22T00:54:40.580Z,102848.31
2022-09-22T00:57:13.229Z,102846.66
2022-09-22T00:59:43.142Z,102840.66
2022-09-22T01:02:12.024Z,102838.16
2022-09-22T01:04:40.068Z,102836.41
2022-09-22T01:07:08.623Z,102839.06
2022-09-22T01:09:36.999Z,102834.78
2022-09-22T01:12:06.026Z,102828.69
2022-09-22T01:14:55.935Z,102831.31
2022-09-22T01:17:32.693Z,102826.09
2022-09-22T01:20:43.781Z,102826.94
2022-09-22T01:23:54.982Z,102825.97
2022-09-22T01:26:42.939Z,102826.78
2022-09-22T01:29:38.529Z,102827.56
2022-09-22T01:32:17.228Z,102825.69
2022-09-22T01:34:50.582Z,102829.03
2022-09-22T01:37:25.421Z,102817.66
2022-09-22T01:39:59.047Z,102823.69
2022-09-22T01:42:31.865Z,102822.75
2022-09-22T01:45:07.691Z,102821.81
2022-09-22T01:47:41.784Z,102821.81
2022-09-22T01:50:14.674Z,102816.56
2022-09-22T01:52:44.032Z,102814.84
2022-09-22T01:55:16.776Z,102821.88
2022-09-22T01:57:50.730Z,102819.25
2022-09-22T02:00:19.069Z,102814.91
2022-09-22T02:02:53.637Z,102812.31
2022-09-22T02:05:26.666Z,102811.50
2022-09-22T02:07:57.676Z,102802.78
2022-09-22T02:10:28.903Z,102801.09
2022-09-22T02:12:56.827Z,102805.47
2022-09-22T02:15:42.237Z,102806.38
2022-09-22T02:18:15.947Z,102812.53
2022-09-22T02:20:43.916Z,102810.81
2022-09-22T02:23:11.849Z,102810.88
2022-09-22T02:25:41.937Z,102811.81
2022-09-22T02:28:11.843Z,102806.63
2022-09-22T02:30:40.482Z,102810.13
2022-09-22T02:33:09.008Z,102814.53
2022-09-22T02:35:41.459Z,102813.69
2022-09-22T02:38:14.631Z,102811.09
2022-09-22T02:40:48.570Z,102809.38
2022-09-22T02:43:24.705Z,102812.88
2022-09-22T02:45:58.409Z,102818.09
2022-09-22T02:48:30.368Z,102818.09
2022-09-22T02:51:00.410Z,102823.31
2022-09-22T02:53:28.531Z,102815.47
2022-09-22T02:55:57.397Z,102815.50
2022-09-22T02:58:25.376Z,102816.41
2022-09-22T03:00:53.271Z,102811.19
2022-09-22T03:03:21.193Z,102814.69
2022-09-22T03:05:49.066Z,102810.41
2022-09-22T03:08:18.407Z,102808.72
2022-09-22T03:10:46.476Z,102806.09
2022-09-22T03:13:17.181Z,102806.16
2022-09-22T03:15:46.923Z,102808.78
2022-09-22T03:18:16.996Z,102810.56
2022-09-22T03:20:44.941Z,102812.31
2022-09-22T03:23:12.871Z,102813.19
2022-09-22T03:25:42.338Z,102821.91
2022-09-22T03:28:10.667Z,102822.78
2022-09-22T03:30:40.424Z,102825.44
2022-09-22T03:33:08.422Z,102822.84
2022-09-22T03:35:36.471Z,102827.25
2022-09-22T03:38:04.641Z,102823.78
2022-09-22T03:40:32.634Z,102823.78
2022-09-22T03:43:01.973Z,102815.13
2022-09-22T03:45:29.858Z,102818.66
2022-09-22T03:47:59.068Z,102804.84
2022-09-22T03:50:28.405Z,102807.53
2022-09-22T03:52:56.329Z,102817.19
2022-09-22T03:55:24.632Z,102817.25
2022-09-22T03:57:52.603Z,102819.03
2022-09-22T04:00:21.995Z,102806.03
2022-09-22T04:02:50.101Z,102816.53
2022-09-22T04:05:18.201Z,102822.56
2022-09-22T04:07:46.163Z,102812.16
2022-09-22T04:10:14.181Z,102813.03
2022-09-22T04:12:42.218Z,102809.56
2022-09-22T04:15:11.098Z,102802.66
2022-09-22T04:17:40.444Z,102801.78
2022-09-22T04:20:09.617Z,102797.50
2022-09-22T04:22:37.627Z,102805.34
2022-09-22T04:25:06.707Z,102800.16
2022-09-22T04:27:34.592Z,102799.31
2022-09-22T04:30:03.134Z,102799.31
2022-09-22T04:32:31.057Z,102792.34
2022-09-22T04:35:00.485Z,102797.56
2022-09-22T04:37:28.431Z,102792.34
2022-09-22T04:39:56.402Z,102795.84
2022-09-22T04:42:24.344Z,102802.84
2022-09-22T04:44:52.409Z,102799.38
2022-09-22T04:47:20.391Z,102794.16
2022-09-22T04:49:48.312Z,102788.13
2022-09-22T04:52:17.754Z,102792.47
2022-09-22T04:54:45.729Z,102789.00
2022-09-22T04:57:16.079Z,102788.16
2022-09-22T04:59:47.608Z,102791.59
2022-09-22T05:02:15.538Z,102794.22
2022-09-22T05:04:43.956Z,102795.13
2022-09-22T05:07:11.824Z,102797.69
2022-09-22T05:09:41.215Z,102794.22
2022-09-22T05:12:09.230Z,102799.44
2022-09-22T05:14:37.376Z,102795.94
2022-09-22T05:17:05.323Z,102802.06
2022-09-22T05:19:33.367Z,102801.22
2022-09-22T05:22:01.727Z,102806.44
2022-09-22T05:24:29.997Z,102801.22
2022-09-22T05:26:59.918Z,102796.84
2022-09-22T05:29:28.216Z,102798.50
2022-09-22T05:31:56.568Z,102794.16
2022-09-22T05:34:24.481Z,102781.09
2022-09-22T05:36:52.454Z,102788.06
2022-09-22T05:39:21.810Z,102794.16
2022-09-22T05:41:50.201Z,102790.63
2022-09-22T05:44:19.501Z,102795.84
2022-09-22T05:46:47.402Z,102798.44
2022-09-22T05:49:15.430Z,102800.16
2022-09-22T05:51:43.554Z,102809.69
2022-09-22T05:54:11.514Z,102807.94
2022-09-22T05:56:39.450Z,102811.41
2022-09-22T05:59:07.277Z,102813.97
2022-09-22T06:01:38.466Z,102822.69
2022-09-22T06:04:06.322Z,102827.84
2022-09-22T06:06:34.277Z,102826.97
2022-09-22T06:09:02.408Z,102831.34
2022-09-22T06:11:30.420Z,102836.56
2022-09-22T06:13:58.649Z,102840.91
2022-09-22T06:16:26.771Z,102853.97
2022-09-22T06:18:56.228Z,102870.50
2022-09-22T06:21:25.939Z,102867.91
2022-09-22T06:23:53.860Z,102881.78
2022-09-22T06:26:21.735Z,102891.34
2022-09-22T06:28:49.697Z,102899.19
2022-09-22T06:31:17.791Z,102903.56
2022-09-22T06:33:48.719Z,102911.41
2022-09-22T06:36:24.101Z,102922.66
2022-09-22T06:38:53.065Z,102920.03
2022-09-22T06:41:21.640Z,102922.63
2022-09-22T06:43:50.228Z,102927.84
2022-09-22T06:46:19.598Z,102933.06
2022-09-22T06:48:51.589Z,102941.75
2022-09-22T06:51:21.004Z,102944.31
2022-09-22T06:53:51.975Z,102941.66
2022-09-22T06:56:20.749Z,102950.34
2022-09-22T06:59:08.893Z,102942.47
2022-09-22T07:01:37.828Z,102948.47
2022-09-22T07:04:05.971Z,102955.44
2022-09-22T07:06:37.228Z,102962.34
2022-09-22T07:09:06.172Z,102957.94
2022-09-22T07:11:39.539Z,102962.22
2022-09-22T07:14:08.608Z,102964.75
2022-09-22T07:16:37.575Z,102974.22
2022-09-22T07:19:06.188Z,102973.28
2022-09-22T07:21:37.885Z,102971.41
2022-09-22T07:24:08.284Z,102967.81
2022-09-22T07:26:38.448Z,102965.09
2022-09-22T07:29:11.655Z,102968.44
2022-09-22T07:31:40.525Z,102962.19
2022-09-22T07:34:08.963Z,102968.16
2022-09-22T07:36:40.159Z,102967.94
2022-09-22T07:39:11.254Z,102962.56
2022-09-22T07:41:43.231Z,102969.34
2022-09-22T07:44:30.599Z,102963.09
2022-09-22T07:46:58.963Z,102960.25
2022-09-22T07:49:27.177Z,102968.78
2022-09-22T07:51:57.575Z,102981.75
2022-09-22T07:54:27.253Z,102974.59
2022-09-22T07:56:58.723Z,102971.81
2022-09-22T07:59:27.559Z,102972.56
2022-09-22T08:01:55.770Z,102972.50
2022-09-22T08:04:26.376Z,102975.91
2022-09-22T08:06:57.067Z,102971.53
2022-09-22T08:09:25.980Z,102975.84
2022-09-22T08:11:53.912Z,102977.56
2022-09-22T08:14:23.530Z,102994.03
2022-09-22T08:16:53.451Z,102997.41
2022-09-22T08:19:24.023Z,102996.38
2022-09-22T08:21:54.200Z,103002.28
2022-09-22T08:24:24.226Z,102998.63
2022-09-22T08:26:54.205Z,102994.97
2022-09-22T08:29:22.725Z,102993.97
2022-09-22T08:31:51.571Z,102997.31
2022-09-22T08:34:20.225Z,102991.16
2022-09-22T08:36:48.817Z,103002.34
2022-09-22T08:39:18.297Z,102996.16
2022-09-22T08:42:01.169Z,103008.31
2022-09-22T08:44:33.011Z,103014.25
2022-09-22T08:47:03.170Z,103013.16
2022-09-22T08:49:54.527Z,103027.00
2022-09-22T08:52:29.169Z,103029.38
2022-09-22T08:54:59.629Z,103036.25
2022-09-22T08:57:42.700Z,103041.34
2022-09-22T09:00:14.836Z,103044.69
2022-09-22T09:02:46.656Z,103051.53
2022-09-22T09:05:49.402Z,103047.75
2022-09-22T09:08:50.209Z,103055.34
2022-09-22T09:11:27.519Z,103061.22
2022-09-22T09:14:13.726Z,103053.03
2022-09-22T09:16:48.196Z,103063.13
2022-09-22T09:19:20.137Z,103062.69
2022-09-22T09:21:52.848Z,103063.81
2022-09-22T09:27:25.820Z,103076.47
2022-09-22T09:30:02.671Z,103069.84
2022-09-22T09:32:43.960Z,103047.41
2022-09-22T09:35:15.644Z,103023.19
2022-09-22T09:37:46.198Z,103016.44
2022-09-22T09:40:17.280Z,102984.56
2022-09-22T09:42:47.493Z,102964.31
2022-09-22T09:45:19.534Z,102941.34
2022-09-22T09:48:12.417Z,102914.84
2022-09-22T09:50:40.544Z,102901.53
2022-09-22T09:53:31.922Z,102899.56
2022-09-22T09:55:59.992Z,102889.78
2022-09-22T09:58:45.483Z,102881.81
2022-09-22T10:01:16.207Z,102883.47
2022-09-22T10:03:48.318Z,102880.66
2022-09-22T10:06:25.424Z,102881.19
2022-09-22T10:08:53.865Z,102872.88
2022-09-22T10:11:33.719Z,102863.63
2022-09-22T10:14:02.206Z,102857.88
2022-09-22T10:16:36.064Z,102850.47
2022-09-22T10:19:19.300Z,102850.78
2022-09-22T10:21:47.353Z,102836.31
2022-09-22T10:24:28.041Z,102819.38
2022-09-22T10:26:57.461Z,102810.38
2022-09-22T10:29:27.848Z,102799.69
2022-09-22T10:32:13.344Z,102789.06
2022-09-22T10:37:14.209Z,102774.88
2022-09-22T10:39:45.953Z,102764.53
2022-09-22T10:42:25.842Z,102761.03
2022-09-22T10:44:57.347Z,102759.41
2022-09-22T10:47:34.369Z,102746.31
2022-09-22T10:50:29.038Z,102747.59
2022-09-22T10:53:03.457Z,102746.69
2022-09-22T10:55:35.361Z,102742.78
2022-09-22T10:58:27.453Z,102739.94
2022-09-22T11:01:10.576Z,102730.13
2022-09-22T11:04:02.418Z,102733.38
2022-09-22T11:07:20.240Z,102727.25
2022-09-22T11:10:14.896Z,102719.84
2022-09-22T11:12:52.562Z,102719.47
2022-09-22T11:15:35.896Z,102710.63
2022-09-22T11:18:39.535Z,102695.19
2022-09-22T11:21:19.127Z,102687.13
2022-09-22T11:24:18.930Z,102670.00
2022-09-22T11:26:53.521Z,102663.41
2022-09-22T11:29:58.282Z,102658.59
2022-09-22T11:32:45.421Z,102651.38
2022-09-22T11:35:51.672Z,102639.72
2022-09-22T11:38:32.649Z,102633.84
2022-09-22T11:41:21.587Z,102629.75
2022-09-22T11:44:14.960Z,102624.22
2022-09-22T11:47:01.853Z,102596.63
2022-09-22T11:49:43.544Z,102584.59
2022-09-22T11:52:23.303Z,102585.41
2022-09-22T11:55:04.450Z,102572.25
2022-09-22T11:57:38.777Z,102562.97
2022-09-22T12:00:13.136Z,102554.00
2022-09-22T12:02:46.649Z,102544.38
2022-09-22T12:05:20.648Z,102538.56
2022-09-22T12:07:55.730Z,102533.94
2022-09-22T12:10:34.290Z,102520.09
2022-09-22T12:13:03.274Z,102504.22
2022-09-22T12:15:36.013Z,102493.66
2022-09-22T12:18:11.009Z,102503.00
2022-09-22T12:20:55.857Z,102492.44
2022-09-22T12:23:40.292Z,102492.31
2022-09-22T12:26:12.255Z,102486.91
2022-09-22T12:28:43.329Z,102488.06
2022-09-22T12:31:14.268Z,102489.97
2022-09-22T12:33:48.589Z,102498.66
2022-09-22T12:36:18.982Z,102494.03
2022-09-22T12:38:47.607Z,102489.63
2022-09-22T12:41:21.400Z,102489.97
2022-09-22T12:43:49.388Z,102491.97
2022-09-22T12:46:27.918Z,102485.66
2022-09-22T12:48:56.160Z,102493.19
2022-09-22T12:51:33.296Z,102469.59
2022-09-22T12:54:45.818Z,102476.00
2022-09-22T12:57:28.475Z,102473.69
2022-09-22T13:00:12.827Z,102468.75
2022-09-22T13:02:47.320Z,102477.28
2022-09-22T13:05:46.538Z,102475.38
2022-09-22T13:08:23.041Z,102477.66
2022-09-22T13:10:57.017Z,102477.91
2022-09-22T13:13:40.702Z,102475.69
2022-09-22T13:16:36.633Z,102485.84
2022-09-22T13:19:10.981Z,102484.56
2022-09-22T13:21:41.741Z,102495.63
2022-09-22T13:24:25.012Z,102489.25
2022-09-22T13:27:05.824Z,102496.09
2022-09-22T13:29:36.508Z,102490.63
2022-09-22T13:32:26.702Z,102489.63
2022-09-22T13:34:54.747Z,102486.19
2022-09-22T13:37:25.896Z,102476.31
2022-09-22T13:39:55.708Z,102467.47
2022-09-22T13:42:32.456Z,102466.28
2022-09-22T13:45:06.410Z,102469.22
2022-09-22T13:47:35.252Z,102468.22
2022-09-22T13:50:05.861Z,102469.81
2022-09-22T13:52:38.465Z,102463.78
2022-09-22T13:55:10.943Z,102461.38
2022-09-22T13:57:40.079Z,102451.59
2022-09-22T14:00:24.478Z,102457.03
2022-09-22T14:02:52.976Z,102452.53
2022-09-22T14:05:25.224Z,102456.09
2022-09-22T14:08:11.202Z,102452.06
2022-09-22T14:10:43.532Z,102452.22
2022-09-22T14:13:39.153Z,102450.44
2022-09-22T14:16:13.211Z,102454.41
2022-09-22T14:18:45.319Z,102461.03
2022-09-22T14:21:13.982Z,102460.13
2022-09-22T14:23:47.995Z,102455.59
2022-09-22T14:26:28.299Z,102448.59
2022-09-22T14:28:59.663Z,102448.09
2022-09-22T14:31:33.361Z,102450.22
2022-09-22T14:34:03.674Z,102445.25
2022-09-22T14:36:31.700Z,102451.13
2022-09-22T14:39:10.189Z,102449.06
2022-09-22T14:41:39.631Z,102452.72
2022-09-22T14:44:26.654Z,102444.72
2022-09-22T14:46:57.677Z,102446.72
2022-09-22T14:49:42.377Z,102445.28
2022-09-22T14:52:25.163Z,102443.66
2022-09-22T14:54:54.726Z,102443.72
2022-09-22T14:57:22.956Z,102445.84
2022-09-22T15:00:13.675Z,102437.91
2022-09-22T15:02:47.430Z,102425.34
2022-09-22T15:05:29.578Z,102404.75
2022-09-22T15:07:58.733Z,102407.31
2022-09-22T15:10:28.932Z,102400.44
2022-09-22T15:13:18.361Z,102402.25
2022-09-22T15:15:47.670Z,102384.66
2022-09-22T15:18:19.285Z,102399.53
2022-09-22T15:20:50.059Z,102404.94
2022-09-22T15:23:21.881Z,102409.97
2022-09-22T15:25:51.853Z,102417.59
2022-09-22T15:28:23.055Z,102418.94
2022-09-22T15:30:52.157Z,102417.59
2022-09-22T15:33:22.620Z,102429.66
2022-09-22T15:35:56.458Z,102429.13
2022-09-22T15:38:27.518Z,102437.47
2022-09-22T15:40:55.496Z,102436.78
2022-09-22T15:43:24.665Z,102440.28
2022-09-22T15:45:56.754Z,102442.00
2022-09-22T15:48:31.602Z,102445.50
2022-09-22T15:51:04.508Z,102448.88
2022-09-22T15:53:33.868Z,102451.53
2022-09-22T15:56:04.965Z,102445.31
2022-09-22T15:58:36.155Z,102443.44
2022-09-22T16:01:05.808Z,102444.47
2022-09-22T16:03:40.952Z,102454.44
2022-09-22T16:06:13.215Z,102449.38
2022-09-22T16:08:43.882Z,102446.13
2022-09-22T16:11:14.597Z,102443.06
2022-09-22T16:13:42.862Z,102450.38
2022-09-22T16:16:12.748Z,102448.84
2022-09-22T16:18:44.019Z,102461.56
2022-09-22T16:21:19.830Z,102467.34
2022-09-22T16:23:47.702Z,102490.53
2022-09-22T16:26:15.894Z,102489.03
2022-09-22T16:28:43.837Z,102490.91
2022-09-22T16:31:11.945Z,102493.72
2022-09-22T16:33:41.621Z,102502.63
2022-09-22T16:36:09.565Z,102501.06
2022-09-22T16:38:39.461Z,102519.72
2022-09-22T16:41:09.441Z,102522.66
2022-09-22T16:43:37.410Z,102527.84
2022-09-22T16:46:23.008Z,102545.03
2022-09-22T16:48:53.529Z,102563.84
2022-09-22T16:51:35.200Z,102595.88
2022-09-22T16:54:19.570Z,102617.38
2022-09-22T16:56:48.875Z,102642.31
2022-09-22T16:59:18.663Z,102652.09
2022-09-22T17:01:47.124Z,102658.38
2022-09-22T17:04:18.582Z,102669.16
2022-09-22T17:06:47.309Z,102699.94
2022-09-22T17:09:16.629Z,102722.13
2022-09-22T17:11:46.656Z,102735.41
2022-09-22T17:14:16.145Z,102749.63
2022-09-22T17:16:45.361Z,102770.81
2022-09-22T17:19:16.118Z,102795.53
2022-09-22T17:21:46.568Z,102828.16
2022-09-22T17:24:15.453Z,102845.78
2022-09-22T17:26:47.307Z,102863.44
2022-09-22T17:29:16.985Z,102885.38
2022-09-22T17:31:48.001Z,102909.94
2022-09-22T17:34:17.171Z,102925.81
2022-09-22T17:36:46.495Z,102948.53
2022-09-22T17:39:14.536Z,102964.31
2022-09-22T17:41:46.753Z,102973.91
2022-09-22T17:44:20.890Z,102982.66
2022-09-22T17:47:07.024Z,102997.56
2022-09-22T17:49:52.643Z,103022.13
2022-09-22T17:52:39.585Z,103038.75
2022-09-22T17:55:12.002Z,103058.03
2022-09-22T17:57:41.772Z,103079.97
2022-09-22T18:00:12.395Z,103077.41
2022-09-22T18:02:40.729Z,103095.75
2022-09-22T18:05:11.674Z,103102.78
2022-09-22T18:07:41.129Z,103107.25
2022-09-22T18:10:10.521Z,103110.75
2022-09-22T18:12:38.385Z,103121.28
2022-09-22T18:15:07.872Z,103121.28
2022-09-22T18:17:41.324Z,103118.66
2022-09-22T18:20:11.557Z,103123.91
2022-09-22T18:22:41.874Z,103131.81
2022-09-22T18:25:10.524Z,103138.78
2022-09-22T18:27:40.077Z,103134.38
2022-09-22T18:30:08.837Z,103152.78
2022-09-22T18:32:36.766Z,103153.75
2022-09-22T18:35:05.808Z,103159.91
2022-09-22T18:37:34.171Z,103153.84
2022-09-22T18:40:03.667Z,103158.25
2022-09-22T18:42:32.498Z,103148.63
2022-09-22T18:45:00.415Z,103149.56
2022-09-22T18:47:28.312Z,103150.47
2022-09-22T18:49:56.938Z,103150.38
2022-09-22T18:52:25.603Z,103156.50
2022-09-22T18:54:54.868Z,103153.03
2022-09-22T18:57:25.744Z,103143.47
2022-09-22T18:59:57.553Z,103142.59
2022-09-22T19:02:25.698Z,103148.78
2022-09-22T19:04:53.748Z,103161.09
2022-09-22T19:07:44.156Z,103151.47
2022-09-22T19:10:13.737Z,103136.59
2022-09-22T19:12:43.573Z,103134.88
2022-09-22T19:15:15.178Z,103140.13
2022-09-22T19:17:44.825Z,103123.47
2022-09-22T19:20:14.806Z,103108.66
2022-09-22T19:22:43.105Z,103103.47
2022-09-22T19:25:11.168Z,103102.66
2022-09-22T19:27:39.805Z,103072.03
2022-09-22T19:30:10.245Z,103060.69
2022-09-22T19:32:38.802Z,103032.69
2022-09-22T19:35:08.577Z,102995.84
2022-09-22T19:37:37.178Z,102958.16
2022-09-22T19:40:05.694Z,102925.72
2022-09-22T19:42:40.112Z,102910.78
2022-09-22T19:45:10.527Z,102889.66
2022-09-22T19:47:40.659Z,102862.44
2022-09-22T19:50:09.425Z,102838.75
2022-09-22T19:52:37.778Z,102820.34
2022-09-22T19:55:07.519Z,102790.44
2022-09-22T19:57:41.194Z,102769.41
2022-09-22T20:00:11.904Z,102733.44
2022-09-22T20:02:40.070Z,102709.69
2022-09-22T20:05:20.986Z,102693.91
2022-09-22T20:07:48.920Z,102671.91
2022-09-22T20:10:17.391Z,102626.28
2022-09-22T20:12:45.323Z,102570.16
2022-09-22T20:15:15.889Z,102522.78
2022-09-22T20:17:46.281Z,102504.31
2022-09-22T20:20:15.755Z,102464.84
2022-09-22T20:22:44.302Z,102441.16
2022-09-22T20:25:22.727Z,102414.78
2022-09-22T20:27:50.605Z,102372.75
2022-09-22T20:30:20.520Z,102313.00
2022-09-22T20:32:49.003Z,102269.19
2022-09-22T20:35:19.042Z,102207.00
2022-09-22T20:37:47.136Z,102188.56
2022-09-22T20:40:18.678Z,102167.53
2022-09-22T20:42:46.748Z,102139.50
2022-09-22T20:45:14.783Z,102127.25
2022-09-22T20:47:44.248Z,102087.94
2022-09-22T20:50:12.704Z,102057.31
2022-09-22T20:52:41.197Z,101984.59
2022-09-22T20:55:10.338Z,101956.50
2022-09-22T20:57:39.051Z,101929.44
2022-09-22T21:00:08.471Z,101897.00
2022-09-22T21:02:36.558Z,101876.06
2022-09-22T21:05:06.501Z,101841.09
2022-09-22T21:07:34.633Z,101819.28
2022-09-22T21:10:19.720Z,101801.81
2022-09-22T21:12:47.594Z,101775.59
2022-09-22T21:15:15.645Z,101757.09
2022-09-22T21:17:44.219Z,101724.69
2022-09-22T21:20:13.596Z,101716.03
2022-09-22T21:22:44.458Z,101718.59
2022-09-22T21:25:12.388Z,101712.47
2022-09-22T21:27:40.301Z,101721.22
2022-09-22T21:30:09.232Z,101724.69
2022-09-22T21:32:37.796Z,101716.81
2022-09-22T21:35:06.802Z,101714.94
2022-09-22T21:37:36.083Z,101721.97
2022-09-22T21:40:04.197Z,101720.19
2022-09-22T21:42:32.279Z,101729.75
2022-09-22T21:45:00.248Z,101740.38
2022-09-22T21:47:28.104Z,101760.50
2022-09-22T21:49:55.976Z,101770.25
2022-09-22T21:52:23.862Z,101786.13
2022-09-22T21:54:53.111Z,101794.00
2022-09-22T21:57:21.021Z,101802.75
2022-09-22T21:59:48.912Z,101814.13
2022-09-22T22:02:16.800Z,101822.78
2022-09-22T22:04:46.535Z,101834.22
2022-09-22T22:07:15.510Z,101841.19
2022-09-22T22:09:43.414Z,101856.00
2022-09-22T22:12:13.357Z,101864.84
2022-09-22T22:14:41.212Z,101868.25
2022-09-22T22:17:09.064Z,101882.16
2022-09-22T22:19:36.949Z,101897.88
2022-09-22T22:22:05.301Z,101906.53
2022-09-22T22:24:39.608Z,101915.16
2022-09-22T22:27:09.751Z,101925.63
2022-09-22T22:29:39.657Z,101932.56
2022-09-22T22:32:09.292Z,101961.50
2022-09-22T22:34:37.850Z,101978.16
2022-09-22T22:37:09.642Z,101994.88
2022-09-22T22:39:37.823Z,102013.22
2022-09-22T22:42:06.512Z,102032.47
2022-09-22T22:44:35.203Z,102054.44
2022-09-22T22:47:05.255Z,102076.34
2022-09-22T22:49:33.611Z,102096.53
2022-09-22T22:52:01.552Z,102111.47
2022-09-22T22:54:29.441Z,102132.66
2022-09-22T22:56:57.344Z,102150.47
2022-09-22T22:59:25.317Z,102171.84
2022-09-22T23:01:53.686Z,102191.41
2022-09-22T23:04:23.060Z,102196.97
2022-09-22T23:06:51.733Z,102195.41
2022-09-22T23:09:19.604Z,102205.16
2022-09-22T23:11:47.604Z,102188.50
2022-09-22T23:14:16.372Z,102185.75
2022-09-22T23:16:46.468Z,102181.25
2022-09-22T23:19:16.154Z,102174.16
2022-09-22T23:21:46.096Z,102174.97
2022-09-22T23:24:16.446Z,102176.00
2022-09-22T23:26:44.691Z,102188.38
2022-09-22T23:29:12.775Z,102203.28
2022-09-22T23:31:40.787Z,102207.72
2022-09-22T23:34:08.692Z,102218.38
2022-09-22T23:36:36.623Z,102214.13
2022-09-22T23:39:06.083Z,102219.38
2022-09-22T23:41:35.773Z,102223.94
2022-09-22T23:44:05.834Z,102229.34
2022-09-22T23:46:34.008Z,102219.88
2022-09-22T23:49:02.343Z,102219.97
2022-09-22T23:51:30.302Z,102210.34
2022-09-22T23:53:58.659Z,102206.91
2022-09-22T23:56:28.008Z,102196.38
2022-09-22T23:58:55.956Z,102195.66
